Terminal Aerodrome Forecast
Issued by NWS Cleveland, OH

Home | Current Version | Previous Version | Text Only | Print | Product List | Glossary On
Versions: 1 2 3 4 5 6 7 8 9 10 11 12 13 14 15 16 17 18
000
FTUS41 KCLE 251120
TAFYNG
TAF
KYNG 251120Z 2512/2612 24005KT P6SM SCT060
     FM251500 27012G20KT P6SM SCT050
     FM251800 27015G24KT P6SM BKN050
     FM260000 23007KT P6SM BKN050=

USA.gov is the U.S. government's official web portal to all federal, state and local government web resources and services.